createdAt,value
2018-07-14T00:00:54.554Z,16.00
2018-07-14T00:03:23.386Z,12.40
2018-07-14T00:05:53.105Z,13.00
2018-07-14T00:08:20.720Z,15.20
2018-07-14T00:10:48.577Z,15.40
2018-07-14T00:13:16.556Z,15.80
2018-07-14T00:15:45.259Z,14.00
2018-07-14T00:18:14.080Z,16.00
2018-07-14T00:20:41.981Z,15.40
2018-07-14T00:23:10.146Z,15.40
2018-07-14T00:25:44.343Z,13.60
2018-07-14T00:28:12.368Z,14.60
2018-07-14T00:30:40.008Z,12.00
2018-07-14T00:33:07.675Z,14.80
2018-07-14T00:35:35.587Z,12.40
2018-07-14T00:38:04.065Z,14.20
2018-07-14T00:40:33.021Z,13.00
2018-07-14T00:43:00.930Z,11.60
2018-07-14T00:45:28.567Z,15.00
2018-07-14T00:47:56.239Z,16.40
2018-07-14T00:50:25.738Z,12.00
2018-07-14T00:52:53.409Z,16.00
2018-07-14T00:55:21.035Z,13.00
2018-07-14T00:57:48.643Z,16.00
2018-07-14T01:00:16.675Z,12.80
2018-07-14T01:02:44.743Z,17.20
2018-07-14T01:05:12.434Z,17.20
2018-07-14T01:07:40.346Z,17.20
2018-07-14T01:10:08.032Z,19.40
2018-07-14T01:12:35.678Z,18.60
2018-07-14T01:15:03.704Z,10.40
2018-07-14T01:17:32.475Z,15.00
2018-07-14T01:20:00.166Z,17.20
2018-07-14T01:22:28.900Z,16.00
2018-07-14T01:24:56.833Z,16.00
2018-07-14T01:27:24.432Z,16.40
2018-07-14T01:29:52.098Z,13.80
2018-07-14T01:32:20.028Z,15.60
2018-07-14T01:34:48.647Z,15.20
2018-07-14T01:37:16.313Z,13.80
2018-07-14T01:39:43.943Z,16.40
2018-07-14T01:42:11.861Z,15.60
2018-07-14T01:44:39.537Z,15.80
2018-07-14T01:47:07.183Z,13.80
2018-07-14T01:49:35.078Z,16.80
2018-07-14T01:52:02.739Z,14.60
2018-07-14T01:54:31.155Z,15.40
2018-07-14T01:56:59.089Z,16.00
2018-07-14T01:59:26.698Z,15.40
2018-07-14T02:01:54.339Z,16.20
2018-07-14T02:04:22.896Z,15.60
2018-07-14T02:06:50.552Z,18.40
2018-07-14T02:09:18.191Z,18.20
2018-07-14T02:11:46.116Z,17.00
2018-07-14T02:14:13.764Z,17.40
2018-07-14T02:16:41.384Z,17.20
2018-07-14T02:19:09.012Z,18.80
2018-07-14T02:21:36.903Z,17.20
2018-07-14T02:24:04.571Z,18.80
2018-07-14T02:26:32.219Z,15.80
2018-07-14T02:28:59.864Z,17.60
2018-07-14T02:31:27.975Z,18.40
2018-07-14T02:33:55.599Z,18.00
2018-07-14T02:36:23.232Z,17.00
2018-07-14T02:38:50.945Z,18.00
2018-07-14T02:41:18.859Z,12.80
2018-07-14T02:43:46.688Z,15.20
2018-07-14T02:46:14.366Z,16.80
2018-07-14T02:48:42.003Z,15.80
2018-07-14T02:51:11.641Z,15.20
2018-07-14T02:53:40.357Z,15.40
2018-07-14T02:56:07.958Z,18.20
2018-07-14T02:58:35.596Z,16.40
2018-07-14T03:01:03.528Z,16.80
2018-07-14T03:03:31.680Z,17.00
2018-07-14T03:05:59.300Z,16.80
2018-07-14T03:08:27.206Z,17.60
2018-07-14T03:10:54.853Z,16.00
2018-07-14T03:13:22.530Z,16.00
2018-07-14T03:15:50.933Z,16.20
2018-07-14T03:18:18.856Z,14.60
2018-07-14T03:20:46.503Z,15.20
2018-07-14T03:23:14.185Z,13.80
2018-07-14T03:25:41.794Z,14.20
2018-07-14T03:28:09.701Z,15.00
2018-07-14T03:30:37.308Z,14.20
2018-07-14T03:33:05.022Z,16.00
2018-07-14T03:35:32.675Z,13.00
2018-07-14T03:38:00.636Z,14.60
2018-07-14T03:40:28.308Z,14.60
2018-07-14T03:42:55.953Z,15.40
2018-07-14T03:45:23.908Z,15.40
2018-07-14T03:47:52.339Z,14.00
2018-07-14T03:50:20.227Z,15.40
2018-07-14T03:52:47.861Z,15.60
2018-07-14T03:55:15.794Z,15.00
2018-07-14T03:57:43.387Z,16.40
2018-07-14T04:00:10.982Z,12.80
2018-07-14T04:02:38.602Z,18.40
2018-07-14T04:05:06.273Z,14.60
2018-07-14T04:07:34.119Z,14.60
2018-07-14T04:10:01.757Z,16.00
2018-07-14T04:12:29.648Z,15.60
2018-07-14T04:14:57.303Z,15.00
2018-07-14T04:17:24.916Z,8.80
2018-07-14T04:19:52.850Z,15.00
2018-07-14T04:22:20.451Z,16.40
2018-07-14T04:24:48.100Z,15.00
2018-07-14T04:27:15.768Z,16.40
2018-07-14T04:29:43.671Z,15.20
2018-07-14T04:32:11.295Z,15.60
2018-07-14T04:34:38.908Z,18.60
2018-07-14T04:37:06.530Z,16.80
2018-07-14T04:39:34.459Z,16.40
2018-07-14T04:42:02.094Z,14.60
2018-07-14T04:44:30.691Z,15.00
2018-07-14T04:46:58.578Z,18.40
2018-07-14T04:49:26.313Z,18.80
2018-07-14T04:51:53.937Z,19.00
2018-07-14T04:54:21.628Z,18.20
2018-07-14T04:56:49.499Z,19.40
2018-07-14T04:59:17.110Z,16.00
2018-07-14T05:01:44.728Z,19.00
2018-07-14T05:04:12.361Z,17.20
2018-07-14T05:06:39.982Z,16.80
2018-07-14T05:09:07.982Z,22.20
2018-07-14T05:11:35.978Z,18.00
2018-07-14T05:14:03.658Z,16.40
2018-07-14T05:16:31.285Z,17.60
2018-07-14T05:18:59.190Z,15.80
2018-07-14T05:21:26.887Z,15.20
2018-07-14T05:23:54.492Z,18.40
2018-07-14T05:26:23.349Z,16.80
2018-07-14T05:28:50.982Z,17.20
2018-07-14T05:31:18.616Z,18.00
2018-07-14T05:33:46.539Z,18.20
2018-07-14T05:36:14.179Z,15.20
2018-07-14T05:38:41.789Z,17.60
2018-07-14T05:41:09.725Z,18.80
2018-07-14T05:43:37.334Z,17.80
2018-07-14T05:46:05.000Z,16.00
2018-07-14T05:48:32.940Z,18.20
2018-07-14T05:51:00.586Z,15.40
2018-07-14T05:53:29.387Z,18.80
2018-07-14T05:55:57.322Z,16.60
2018-07-14T05:58:24.938Z,18.20
2018-07-14T06:00:52.598Z,18.20
2018-07-14T06:03:20.527Z,19.00
2018-07-14T06:05:48.139Z,19.40
2018-07-14T06:08:15.793Z,21.20
2018-07-14T06:10:43.775Z,19.00
2018-07-14T06:13:11.419Z,19.80
2018-07-14T06:15:39.064Z,19.20
2018-07-14T06:18:07.001Z,20.20
2018-07-14T06:20:34.667Z,18.80
2018-07-14T06:23:02.321Z,18.60
2018-07-14T06:25:30.256Z,16.20
2018-07-14T06:27:57.882Z,21.80
2018-07-14T06:30:25.547Z,18.00
2018-07-14T06:32:53.504Z,20.20
2018-07-14T06:35:21.142Z,16.40
2018-07-14T06:37:48.774Z,16.80
2018-07-14T06:40:17.370Z,17.40
2018-07-14T06:42:45.531Z,24.60
2018-07-14T06:45:13.144Z,21.20
2018-07-14T06:47:44.180Z,20.00
2018-07-14T06:50:11.817Z,22.40
2018-07-14T06:52:39.695Z,21.40
2018-07-14T06:55:07.643Z,22.00
2018-07-14T06:57:36.870Z,19.00
2018-07-14T07:00:04.535Z,20.60
2018-07-14T07:02:33.576Z,20.00
2018-07-14T07:05:01.236Z,22.00
2018-07-14T07:07:29.490Z,20.20
2018-07-14T07:09:57.401Z,17.00
2018-07-14T07:12:25.024Z,21.60
2018-07-14T07:14:52.646Z,21.00
2018-07-14T07:17:20.687Z,20.80
2018-07-14T07:19:48.330Z,20.20
2018-07-14T07:22:16.842Z,14.00
2018-07-14T07:24:45.440Z,20.40
2018-07-14T07:27:13.811Z,20.00
2018-07-14T07:29:41.482Z,17.00
2018-07-14T07:32:09.644Z,24.20
2018-07-14T07:34:37.348Z,18.60
2018-07-14T07:37:06.366Z,18.00
2018-07-14T07:39:34.307Z,18.80
2018-07-14T07:42:06.626Z,20.40
2018-07-14T07:44:36.250Z,15.60
2018-07-14T07:47:04.708Z,16.40
2018-07-14T07:49:32.326Z,22.00
2018-07-14T07:52:01.951Z,16.20
2018-07-14T07:54:29.899Z,20.20
2018-07-14T07:56:57.546Z,18.60
2018-07-14T07:59:26.797Z,18.00
2018-07-14T08:01:56.125Z,18.60
2018-07-14T08:04:24.603Z,19.00
2018-07-14T08:06:53.031Z,19.60
2018-07-14T08:09:20.895Z,19.20
2018-07-14T08:11:50.701Z,19.80
2018-07-14T08:14:18.299Z,18.40
2018-07-14T08:16:48.671Z,19.20
2018-07-14T08:19:18.020Z,18.20
2018-07-14T08:21:45.671Z,18.60
2018-07-14T08:24:13.620Z,19.40
2018-07-14T08:26:41.507Z,18.20
2018-07-14T08:29:10.142Z,18.20
2018-07-14T08:31:38.675Z,14.20
2018-07-14T08:34:06.546Z,18.00
2018-07-14T08:42:04.632Z,17.60
2018-07-14T08:44:32.454Z,17.00
2018-07-14T08:47:18.534Z,19.00
2018-07-14T08:49:46.439Z,16.60
2018-07-14T08:52:14.028Z,17.20
2018-07-14T08:54:42.258Z,17.00
2018-07-14T08:57:10.155Z,19.00
2018-07-14T08:59:38.312Z,18.60
2018-07-14T09:02:09.237Z,16.20
2018-07-14T09:04:37.098Z,17.00
2018-07-14T09:07:05.336Z,14.40
2018-07-14T09:09:34.019Z,13.60
2018-07-14T09:12:02.526Z,18.00
2018-07-14T09:14:30.325Z,16.60
2018-07-14T09:16:58.667Z,10.00
2018-07-14T09:19:31.481Z,16.20
2018-07-14T09:22:01.209Z,15.80
2018-07-14T09:24:29.507Z,16.00
2018-07-14T09:26:57.602Z,15.00
2018-07-14T09:29:26.334Z,14.00
2018-07-14T09:31:54.509Z,13.40
2018-07-14T09:34:26.116Z,14.60
2018-07-14T09:36:54.414Z,15.00
2018-07-14T09:39:24.285Z,16.00
2018-07-14T09:41:54.787Z,16.00
2018-07-14T09:44:22.372Z,15.20
2018-07-14T09:46:53.577Z,15.20
2018-07-14T09:49:21.430Z,16.00
2018-07-14T09:51:51.266Z,15.40
2018-07-14T09:54:18.927Z,16.00
2018-07-14T09:56:47.926Z,14.80
2018-07-14T09:59:17.455Z,12.20
2018-07-14T10:01:46.138Z,17.00
2018-07-14T10:04:16.902Z,13.60
2018-07-14T10:06:47.644Z,16.60
2018-07-14T10:09:16.126Z,17.00
2018-07-14T10:11:44.025Z,13.60
2018-07-14T10:14:11.651Z,13.80
2018-07-14T10:16:39.298Z,15.00
2018-07-14T10:19:07.179Z,15.80
2018-07-14T10:21:34.765Z,15.00
2018-07-14T10:24:04.050Z,15.20
2018-07-14T10:26:31.932Z,15.80
2018-07-14T10:28:59.551Z,15.80
2018-07-14T10:31:28.565Z,15.00
2018-07-14T10:33:57.115Z,14.80
2018-07-14T10:36:24.777Z,14.00
2018-07-14T10:38:52.397Z,14.40
2018-07-14T10:41:20.362Z,15.00
2018-07-14T10:43:48.795Z,15.60
2018-07-14T10:46:16.498Z,12.20
2018-07-14T10:48:44.390Z,14.00
2018-07-14T10:51:12.029Z,14.00
2018-07-14T10:53:39.639Z,13.00
2018-07-14T10:56:12.558Z,11.80
2018-07-14T10:58:40.507Z,13.20
2018-07-14T11:01:08.855Z,17.40
2018-07-14T11:03:36.783Z,14.40
2018-07-14T11:06:04.395Z,7.60
2018-07-14T11:08:32.809Z,13.80
2018-07-14T11:11:01.675Z,13.40
2018-07-14T11:13:29.266Z,9.20
2018-07-14T11:15:56.859Z,10.60
2018-07-14T11:18:25.667Z,14.20
2018-07-14T11:20:53.300Z,15.00
2018-07-14T11:23:20.958Z,11.80
2018-07-14T11:25:48.883Z,14.60
2018-07-14T11:28:16.553Z,13.00
2018-07-14T11:30:45.441Z,11.60
2018-07-14T11:33:13.341Z,13.40
2018-07-14T11:35:40.989Z,11.00
2018-07-14T11:38:08.676Z,12.80
2018-07-14T11:40:37.671Z,12.00
2018-07-14T11:43:05.295Z,13.00
2018-07-14T11:45:32.880Z,12.80
2018-07-14T11:48:00.865Z,12.80
2018-07-14T11:50:28.447Z,12.20
2018-07-14T11:52:57.679Z,12.60
2018-07-14T11:55:25.571Z,12.40
2018-07-14T11:57:53.193Z,12.20
2018-07-14T12:00:20.792Z,12.20
2018-07-14T12:02:49.025Z,13.20
2018-07-14T12:05:16.639Z,15.40
2018-07-14T12:07:44.299Z,11.00
2018-07-14T12:10:13.019Z,12.80
2018-07-14T12:12:40.693Z,14.40
2018-07-14T12:15:08.377Z,13.00
2018-07-14T12:17:36.284Z,11.60
2018-07-14T12:20:03.920Z,13.00
2018-07-14T12:22:32.222Z,12.00
2018-07-14T12:25:00.241Z,11.80
2018-07-14T12:27:27.860Z,12.20
2018-07-14T12:29:55.606Z,12.00
2018-07-14T12:32:23.709Z,12.80
2018-07-14T12:34:52.285Z,13.00
2018-07-14T12:37:19.859Z,11.80
2018-07-14T12:39:48.040Z,13.00
2018-07-14T12:42:15.635Z,13.00
2018-07-14T12:44:43.222Z,14.60
2018-07-14T12:47:11.147Z,14.00
2018-07-14T12:49:40.154Z,13.20
2018-07-14T12:52:08.379Z,14.00
2018-07-14T12:54:36.282Z,12.20
2018-07-14T12:57:03.888Z,16.60
2018-07-14T12:59:31.759Z,15.80
2018-07-14T13:02:02.215Z,19.80
2018-07-14T13:04:29.871Z,16.00
2018-07-14T13:06:57.476Z,17.40
2018-07-14T13:09:25.628Z,15.00
2018-07-14T13:11:54.099Z,14.20
2018-07-14T13:14:21.702Z,16.20
2018-07-14T13:16:49.577Z,16.40
2018-07-14T13:19:17.156Z,15.80
2018-07-14T13:21:45.322Z,17.40
2018-07-14T13:24:13.211Z,18.00
2018-07-14T13:26:40.827Z,18.20
2018-07-14T13:29:08.475Z,13.80
2018-07-14T13:31:38.419Z,16.00
2018-07-14T13:34:07.071Z,17.00
2018-07-14T13:36:35.506Z,16.40
2018-07-14T13:39:03.713Z,15.80
2018-07-14T13:41:31.349Z,16.60
2018-07-14T13:44:02.266Z,15.40
2018-07-14T13:46:31.179Z,15.40
2018-07-14T13:48:58.798Z,13.80
2018-07-14T13:51:26.636Z,16.60
2018-07-14T13:53:54.547Z,12.60
2018-07-14T13:56:24.276Z,15.00
2018-07-14T14:01:39.291Z,13.60
2018-07-14T14:43:12.475Z,12.60
2018-07-14T14:45:42.901Z,14.20
2018-07-14T14:48:11.371Z,11.60
2018-07-14T14:50:38.958Z,12.80
2018-07-14T14:53:06.571Z,12.40
2018-07-14T14:55:35.467Z,11.60
2018-07-14T14:58:03.992Z,11.20
2018-07-14T15:00:31.617Z,11.20
2018-07-14T15:03:00.466Z,11.60
2018-07-14T15:05:28.070Z,12.00
2018-07-14T15:07:55.681Z,12.20
2018-07-14T15:10:24.190Z,13.00
2018-07-14T15:12:54.374Z,11.00
2018-07-14T15:15:21.992Z,8.40
2018-07-14T15:17:52.100Z,11.60
2018-07-14T15:20:19.700Z,13.00
2018-07-14T15:22:47.308Z,11.40
2018-07-14T15:25:17.250Z,13.00
2018-07-14T15:27:45.828Z,12.00
2018-07-14T15:30:14.467Z,13.80
2018-07-14T15:32:42.736Z,13.00
2018-07-14T15:35:10.296Z,12.20
2018-07-14T15:37:39.246Z,10.80
2018-07-14T15:40:07.212Z,12.00
2018-07-14T15:42:36.830Z,10.40
2018-07-14T15:45:05.207Z,11.20
2018-07-14T15:47:33.095Z,10.00
2018-07-14T15:50:01.899Z,12.40
2018-07-14T15:52:30.576Z,9.20
2018-07-14T15:54:58.453Z,10.60
2018-07-14T15:57:26.056Z,10.60
2018-07-14T15:59:54.377Z,12.00
2018-07-14T16:02:24.449Z,12.00
2018-07-14T16:04:52.678Z,12.00
2018-07-14T16:07:20.317Z,11.60
2018-07-14T16:09:48.167Z,11.20
2018-07-14T16:12:17.106Z,12.00
2018-07-14T16:14:45.453Z,9.60
2018-07-14T16:17:13.439Z,12.40
2018-07-14T16:19:42.060Z,11.60
2018-07-14T16:22:09.679Z,11.00
2018-07-14T16:24:38.730Z,9.80
2018-07-14T16:27:09.381Z,10.40
2018-07-14T16:29:37.732Z,9.60
2018-07-14T16:32:06.902Z,10.40
2018-07-14T16:34:35.261Z,10.00
2018-07-14T16:37:02.930Z,9.40
2018-07-14T16:39:31.044Z,9.60
2018-07-14T16:41:59.422Z,11.80
2018-07-14T16:44:27.476Z,10.00
2018-07-14T16:46:56.278Z,12.20
2018-07-14T16:49:23.861Z,12.20
2018-07-14T16:51:51.453Z,11.20
2018-07-14T16:54:19.333Z,9.60
2018-07-14T16:56:47.885Z,10.20
2018-07-14T16:59:15.471Z,10.00
2018-07-14T17:01:43.336Z,8.60
2018-07-14T17:04:11.202Z,11.20
2018-07-14T17:06:39.741Z,10.00
2018-07-14T17:09:07.716Z,9.20
2018-07-14T17:11:35.347Z,10.00
2018-07-14T17:14:03.827Z,5.00
2018-07-14T17:16:32.011Z,8.40
2018-07-14T17:18:59.660Z,8.80
2018-07-14T17:21:28.801Z,9.20
2018-07-14T17:23:56.923Z,7.60
2018-07-14T17:26:25.208Z,10.00
2018-07-14T17:28:52.825Z,6.00
2018-07-14T17:31:22.482Z,9.00
2018-07-14T17:33:50.128Z,9.80
2018-07-14T17:36:18.510Z,8.60
2018-07-14T17:38:46.120Z,9.00
2018-07-14T17:41:14.731Z,8.00
2018-07-14T17:43:43.592Z,7.00
2018-07-14T17:46:11.254Z,7.20
2018-07-14T17:48:39.108Z,9.80
2018-07-14T17:51:09.261Z,10.60
2018-07-14T17:53:38.983Z,8.40
2018-07-14T17:56:06.760Z,8.00
2018-07-14T17:58:36.439Z,7.00
2018-07-14T18:01:04.134Z,7.20
2018-07-14T18:03:33.361Z,9.20
2018-07-14T18:06:01.696Z,9.20
2018-07-14T18:08:30.751Z,8.00
2018-07-14T18:10:59.455Z,6.40
2018-07-14T18:13:27.481Z,8.40
2018-07-14T18:15:55.310Z,7.00
2018-07-14T18:18:23.701Z,7.00
2018-07-14T18:20:53.710Z,8.00
2018-07-14T18:23:21.428Z,8.80
2018-07-14T18:25:49.762Z,8.40
2018-07-14T18:28:17.713Z,7.00
2018-07-14T18:30:46.539Z,6.40
2018-07-14T18:33:14.204Z,8.20
2018-07-14T18:35:43.460Z,8.20
2018-07-14T18:38:11.107Z,7.80
2018-07-14T18:40:39.274Z,7.00
2018-07-14T18:43:07.279Z,7.00
2018-07-14T18:45:39.835Z,6.40
2018-07-14T18:48:08.481Z,7.00
2018-07-14T18:50:37.839Z,6.80
2018-07-14T18:53:05.521Z,6.60
2018-07-14T18:55:33.633Z,7.80
2018-07-14T18:58:01.955Z,8.60
2018-07-14T19:00:29.715Z,6.00
2018-07-14T19:02:57.399Z,7.40
2018-07-14T19:05:28.694Z,6.80
2018-07-14T19:07:57.132Z,6.00
2018-07-14T19:10:28.596Z,6.00
2018-07-14T19:12:56.459Z,4.60
2018-07-14T19:15:25.099Z,7.20
2018-07-14T19:17:52.927Z,9.00
2018-07-14T19:20:23.501Z,6.60
2018-07-14T19:22:51.639Z,9.80
2018-07-14T19:25:19.579Z,7.00
2018-07-14T19:27:47.573Z,7.80
2018-07-14T19:30:19.426Z,7.80
2018-07-14T19:32:47.471Z,7.00
2018-07-14T19:35:15.438Z,8.60
2018-07-14T19:37:43.211Z,5.60
2018-07-14T19:40:12.196Z,9.60
2018-07-14T19:42:41.344Z,8.00
2018-07-14T19:45:12.301Z,7.60
2018-07-14T19:47:41.807Z,6.00
2018-07-14T19:50:11.452Z,6.80
2018-07-14T19:52:43.793Z,8.00
2018-07-14T19:55:12.503Z,8.00
2018-07-14T19:57:41.055Z,6.00
2018-07-14T20:00:10.807Z,8.80
2018-07-14T20:02:40.307Z,6.00
2018-07-14T20:05:09.248Z,8.00
2018-07-14T20:07:37.435Z,6.80
2018-07-14T20:10:05.643Z,5.60
2018-07-14T20:12:34.217Z,6.40
2018-07-14T20:15:02.891Z,7.40
2018-07-14T20:17:31.368Z,6.00
2018-07-14T20:20:00.511Z,8.40
2018-07-14T20:22:28.520Z,6.20
2018-07-14T20:24:59.391Z,7.80
2018-07-14T20:27:27.722Z,6.20
2018-07-14T20:29:56.323Z,5.20
2018-07-14T20:32:24.270Z,6.20
2018-07-14T20:34:53.046Z,5.40
2018-07-14T20:37:20.755Z,6.20
2018-07-14T20:39:48.983Z,8.00
2018-07-14T20:42:23.457Z,8.40
2018-07-14T20:44:52.555Z,7.00
2018-07-14T20:47:23.728Z,7.40
2018-07-14T20:49:53.454Z,7.00
2018-07-14T20:52:22.248Z,8.00
2018-07-14T20:54:53.119Z,8.40
2018-07-14T20:57:24.281Z,9.20
2018-07-14T20:59:53.562Z,7.60
2018-07-14T21:02:21.606Z,7.40
2018-07-14T21:04:51.456Z,8.40
2018-07-14T21:07:21.202Z,9.60
2018-07-14T21:09:49.082Z,7.60
2018-07-14T21:12:17.017Z,9.20
2018-07-14T21:14:44.917Z,7.20
2018-07-14T21:17:13.579Z,9.60
2018-07-14T21:19:43.039Z,7.40
2018-07-14T21:22:12.670Z,8.80
2018-07-14T21:24:40.500Z,10.00
2018-07-14T21:27:08.268Z,10.00
2018-07-14T21:29:50.475Z,8.80
2018-07-14T21:32:18.236Z,10.80
2018-07-14T21:34:46.331Z,10.20
2018-07-14T21:37:28.268Z,10.00
2018-07-14T21:39:57.303Z,10.00
2018-07-14T21:42:26.402Z,10.00
2018-07-14T21:44:55.079Z,8.20
2018-07-14T21:47:23.026Z,10.80
2018-07-14T21:49:50.649Z,8.60
2018-07-14T21:54:51.948Z,9.40
2018-07-14T21:57:20.325Z,9.00
2018-07-14T21:59:47.956Z,7.00
2018-07-14T22:02:16.615Z,8.00
2018-07-14T22:04:44.930Z,6.80
2018-07-14T22:07:12.539Z,7.60
2018-07-14T22:09:40.126Z,8.20
2018-07-14T22:12:08.256Z,4.00
2018-07-14T22:14:36.151Z,9.80
2018-07-14T22:17:04.552Z,9.80
2018-07-14T22:19:32.336Z,10.00
2018-07-14T22:22:01.230Z,9.20
2018-07-14T22:24:29.614Z,10.00
2018-07-14T22:26:57.826Z,12.40
2018-07-14T22:29:26.813Z,10.00
2018-07-14T22:31:55.430Z,12.00
2018-07-14T22:34:27.020Z,13.40
2018-07-14T22:36:54.954Z,11.20
2018-07-14T22:39:22.541Z,12.20
2018-07-14T22:41:54.447Z,13.20
2018-07-14T22:44:22.360Z,16.00
2018-07-14T22:46:49.950Z,18.80
2018-07-14T22:49:17.556Z,15.00
2018-07-14T22:51:45.501Z,15.40
2018-07-14T22:54:13.114Z,16.00
2018-07-14T22:56:41.412Z,13.80
2018-07-14T22:59:09.315Z,13.40
2018-07-14T23:01:38.140Z,13.40
2018-07-14T23:04:05.731Z,14.60
2018-07-14T23:06:33.627Z,12.20
2018-07-14T23:09:02.199Z,12.40
2018-07-14T23:11:29.777Z,11.60
2018-07-14T23:14:01.285Z,9.40
2018-07-14T23:16:28.854Z,11.60
2018-07-14T23:18:56.478Z,12.40
2018-07-14T23:21:24.323Z,11.20
2018-07-14T23:23:51.944Z,12.40
2018-07-14T23:26:19.550Z,8.80
2018-07-14T23:28:47.435Z,13.40
2018-07-14T23:31:15.022Z,11.20
2018-07-14T23:33:42.644Z,15.80
2018-07-14T23:36:10.507Z,13.40
2018-07-14T23:38:42.383Z,12.00
2018-07-14T23:41:10.000Z,13.40
2018-07-14T23:43:37.869Z,14.60
2018-07-14T23:46:05.445Z,16.20
2018-07-14T23:48:33.116Z,13.00
2018-07-14T23:51:01.243Z,12.00
2018-07-14T23:53:28.862Z,16.40
2018-07-14T23:55:56.438Z,14.60
2018-07-14T23:58:24.357Z,15.20
